Flight Track Log - Related Links

Times and Time Zones

All times are in EDT time to prevent confusion due to time zone crossing. See the SWA305 flight status page for this flight to view local times or setup timezone preferences in your user account.

Time Position Orientation Groundspeed Altitude Reporting Facility
EDT Latitude Longitude Course Direction KTS MPH feet Rate Location/Type
Sat 12:13:05 AM 37.7594 -122.2847 319° Northwest 214 246 3,500  Level Oakland Center
Sat 12:14:07 AM 37.8208 -122.2647 14° North 229 264 6,200 3,317 Climbing Oakland Center
Sat 12:15:08 AM 37.8931 -122.2400 15° North 260 299 10,300 3,590 Climbing Oakland Center
Sat 12:16:09 AM 37.9803 -122.2467 357° North 318 366 13,500 3,246 Climbing Oakland Center
Sat 12:17:10 AM 38.0750 -122.2458 360° North 340 391 16,900 3,295 Climbing Oakland Center
Sat 12:18:11 AM 38.1764 -122.2456 360° North 365 420 20,200 3,295 Climbing Oakland Center
Sat 12:19:12 AM 38.3044 -122.2442 360° North 384 442 23,600 2,852 Climbing Oakland Center
Sat 12:20:13 AM 38.4156 -122.2439 360° North 399 459 26,000 2,508 Climbing Oakland Center
Sat 12:21:14 AM 38.5311 -122.2433 360° North 413 475 28,700 2,410 Climbing Oakland Center
Sat 12:22:15 AM 38.6475 -122.2422 360° North 418 481 30,900 2,311 Climbing Oakland Center
Sat 12:23:16 AM 38.7611 -122.2425 360° North 419 482 33,400 2,361 Climbing Oakland Center
Sat 12:24:17 AM 38.8761 -122.2422 360° North 415 478 35,700 2,098 Climbing Oakland Center
Sat 12:25:19 AM 38.9861 -122.2417 360° North 403 464 37,700 1,463 Climbing Oakland Center
Sat 12:26:20 AM 39.0989 -122.2417 360° North 401 461 38,700 1,082 Climbing Oakland Center
Sat 12:27:21 AM 39.2128 -122.2394 North 403 464 39,900 639 Climbing Oakland Center
Sat 12:28:22 AM 39.3264 -122.2392 360° North 406 467 40,000 49 Climbing Oakland Center
Sat 12:29:23 AM 39.4600 -122.2386 360° North 402 463 40,000  Level Oakland Center
Sat 12:30:24 AM 39.5711 -122.2383 360° North 403 464 40,000  Level Oakland Center
Sat 12:31:25 AM 39.6831 -122.2378 360° North 404 465 40,000 -98 Level Oakland Center
Sat 12:32:26 AM 39.7953 -122.2372 360° North 403 464 39,800 -590 Descending Oakland Center
Sat 12:33:27 AM 39.9064 -122.2369 360° North 402 463 38,800 -878 Descending Oakland Center
Sat 12:34:29 AM 40.0103 -122.2350 North 382 440 38,000 -390 Descending Oakland Center
Sat 12:35:30 AM 40.1158 -122.2314 North 386 444 38,000  Level Oakland Center
Sat 12:36:31 AM 40.2422 -122.2425 356° North 424 488 38,000  Level Oakland Center
Sat 12:37:32 AM 40.3469 -122.2506 357° North 390 449 38,000  Level Oakland Center
Sat 12:38:33 AM 40.4517 -122.2575 357° North 384 442 38,000  Level Oakland Center
Sat 12:39:34 AM 40.5578 -122.2628 358° North 382 440 38,000  Level Oakland Center
Sat 12:40:35 AM 40.6642 -122.2686 358° North 383 441 38,000  Level Oakland Center
Sat 12:41:36 AM 40.7703 -122.2733 358° North 383 441 38,000  Level Oakland Center
Sat 12:42:37 AM 40.8756 -122.2800 357° North 380 437 38,000  Level Oakland Center
Sat 12:43:39 AM 40.9822 -122.2850 358° North 383 441 38,000  Level Oakland Center
Sat 12:44:40 AM 41.0886 -122.2936 357° North 383 441 38,000  Level Oakland Center
Sat 12:45:41 AM 41.2181 -122.3044 356° North 387 445 38,000  Level Oakland Center
Sat 12:46:42 AM 41.3250 -122.3100 358° North 386 444 38,000  Level Oakland Center
Sat 12:47:22 AM 41.3878 -122.3150 357° North 384 442 38,000  Level Seattle Center
Sat 12:48:23 AM 41.5053 -122.3217 358° North 385 443 38,000  Level Seattle Center
Sat 12:49:24 AM 41.6122 -122.3283 357° North 385 443 38,000  Level Seattle Center
Sat 12:50:24 AM 41.7192 -122.3336 358° North 383 441 38,000  Level Seattle Center
Sat 12:51:25 AM 41.8256 -122.3394 358° North 383 441 38,000  Level Seattle Center
Sat 12:52:26 AM 41.9328 -122.3456 358° North 385 443 38,000  Level Seattle Center
Sat 12:53:27 AM 42.0406 -122.3517 358° North 386 444 38,000  Level Seattle Center
Sat 12:54:27 AM 42.1478 -122.3589 357° North 383 441 38,000  Level Seattle Center
Sat 12:55:28 AM 42.2561 -122.3639 358° North 386 444 38,000  Level Seattle Center
Sat 12:56:29 AM 42.3628 -122.3689 358° North 383 441 38,000  Level Seattle Center
Sat 12:57:29 AM 42.4700 -122.3767 357° North 383 441 38,000  Level Seattle Center
Sat 12:58:30 AM 42.5767 -122.3831 357° North 382 440 38,000  Level Seattle Center
Sat 12:59:30 AM 42.6833 -122.3906 357° North 382 440 38,000  Level Seattle Center
Sat 01:00:31 AM 42.7944 -122.3969 358° North 384 442 38,000  Level Seattle Center
Sat 01:01:32 AM 42.9014 -122.4028 358° North 385 443 38,000  Level Seattle Center
Sat 01:02:32 AM 43.0100 -122.4103 357° North 388 447 38,000  Level Seattle Center
Sat 01:03:33 AM 43.1164 -122.4164 358° North 383 441 38,000  Level Seattle Center
Sat 01:04:34 AM 43.2264 -122.4244 357° North 390 449 38,000  Level Seattle Center
Sat 01:05:34 AM 43.3350 -122.4319 357° North 389 448 38,000  Level Seattle Center
Sat 01:06:35 AM 43.4428 -122.4383 358° North 389 448 38,000  Level Seattle Center
Sat 01:07:36 AM 43.5497 -122.4458 357° North 385 443 38,000  Level Seattle Center
Sat 01:08:36 AM 43.6575 -122.4522 358° North 386 444 38,000  Level Seattle Center
Sat 01:09:37 AM 43.7653 -122.4581 358° North 387 445 38,000  Level Seattle Center
Sat 01:10:37 AM 43.8736 -122.4650 357° North 391 450 38,000  Level Seattle Center
Sat 01:11:38 AM 43.9811 -122.4728 357° North 389 448 38,000  Level Seattle Center
Sat 01:12:39 AM 44.0878 -122.4789 358° North 386 444 38,000  Level Seattle Center
Sat 01:13:39 AM 44.1947 -122.4872 357° North 386 444 38,000  Level Seattle Center
Sat 01:14:40 AM 44.3025 -122.4939 357° North 388 447 38,000  Level Seattle Center
Sat 01:15:40 AM 44.4308 -122.5022 357° North 387 445 38,000  Level Seattle Center
Sat 01:16:41 AM 44.5389 -122.5103 357° North 389 448 38,000  Level Seattle Center
Sat 01:17:42 AM 44.6461 -122.5164 358° North 389 448 38,000  Level Seattle Center
Sat 01:18:42 AM 44.7525 -122.5244 357° North 386 444 38,000  Level Seattle Center
Sat 01:19:43 AM 44.8586 -122.5317 357° North 383 441 38,000  Level Seattle Center
Sat 01:20:43 AM 44.9683 -122.5392 357° North 384 442 38,000  Level Seattle Center
Sat 01:21:44 AM 45.0744 -122.5456 358° North 383 441 38,000  Level Seattle Center
Sat 01:22:44 AM 45.1814 -122.5525 357° North 386 444 38,000  Level Seattle Center
Sat 01:23:45 AM 45.2867 -122.5600 357° North 382 440 38,000  Level Seattle Center
Sat 01:24:46 AM 45.3942 -122.5672 357° North 387 445 38,000  Level Seattle Center
Sat 01:25:46 AM 45.5000 -122.5747 357° North 384 442 38,000  Level Seattle Center
Sat 01:26:47 AM 45.6058 -122.5822 357° North 382 440 38,000  Level Seattle Center
Sat 01:27:47 AM 45.7125 -122.5878 358° North 384 442 38,000  Level Seattle Center
Sat 01:28:48 AM 45.8172 -122.6072 353° North 381 438 38,000  Level Seattle Center
Sat 01:29:48 AM 45.9217 -122.6331 350° North 380 437 38,000 -942 Level Seattle Center
Sat 01:30:49 AM 46.0242 -122.6589 350° North 378 435 36,100 -2,380 Descending Seattle Center
Sat 01:31:49 AM 46.1261 -122.6833 351° North 374 430 33,200 -2,876 Descending Seattle Center
Sat 01:32:50 AM 46.2383 -122.7033 353° North 397 457 30,300 -2,678 Descending Seattle Center
Sat 01:33:50 AM 46.3511 -122.7217 354° North 406 467 27,800 -2,479 Descending Seattle Center
Sat 01:34:51 AM 46.4664 -122.7258 359° North 413 475 25,300 -2,430 Descending Seattle Center
Sat 01:35:51 AM 46.5800 -122.7333 357° North 412 474 22,900 -2,628 Descending Seattle Center
Sat 01:36:52 AM 46.7100 -122.7411 358° North 402 463 20,000 -2,657 Descending Seattle Center
Sat 01:37:01 AM 46.7242 -122.7386 North 383 441 19,800 -1,900 Descending Seattle Center
Sat 01:37:52 AM 46.8119 -122.7186 North 388 447 18,100 -1,964 Descending Seattle Center
Sat 01:37:56 AM 46.8178 -122.7047 58° Northeast 384 442 18,000 -1,967 Descending Seattle Center
Sat 01:38:53 AM 46.8944 -122.6097 40° Northeast 392 451 16,100 -2,164 Descending Seattle Center
Sat 01:38:57 AM 46.9011 -122.6047 27° Northeast 394 453 15,800 -1,900 Descending Seattle Center
Sat 01:39:53 AM 46.9861 -122.5392 28° Northeast 373 429 14,200 -1,786 Descending Seattle Center
Sat 01:40:21 AM 47.0292 -122.5228 15° North 348 400 13,300 -1,770 Descending Seattle Center
Sat 01:40:54 AM 47.0789 -122.5003 17° North 349 402 12,400 -1,869 Descending Seattle Center
Sat 01:41:22 AM 47.1278 -122.4917 North 330 380 11,400 -1,700 Descending Seattle Center
Sat 01:41:54 AM 47.1758 -122.4819 North 328 377 10,700 -977 Descending Seattle Center
Sat 01:42:05 AM 47.1894 -122.4808 North 316 364 10,700 -984 Level Seattle Center
Sat 01:42:55 AM 47.2586 -122.4689 North 301 346 9,700 -1,222 Descending Seattle Center
Sat 01:42:59 AM 47.2644 -122.4694 356° North 288 331 9,600 -1,300 Descending Seattle Center
Sat 01:43:55 AM 47.3375 -122.4569 North 287 330 8,400 -1,164 Descending Seattle Center
Sat 01:44:06 AM 47.3478 -122.4567 North 279 321 8,300 -1,082 Descending Seattle Center
Sat 01:44:56 AM 47.4114 -122.4531 North 271 312 7,300 -1,200 Descending Seattle Center
Sat 01:45:01 AM 47.4164 -122.4550 345° North 262 302 7,200 -1,100 Descending Seattle Center
Sat 01:45:56 AM 47.4839 -122.4544 360° North 260 299 6,200 -1,271 Descending Seattle Center
Sat 01:46:26 AM 47.5164 -122.4558 358° North 259 298 5,400 -1,180 Descending Seattle Center
Sat 01:46:57 AM 47.5569 -122.4550 North 261 300 5,000 -444 Descending Seattle Center
Sat 01:47:20 AM 47.5850 -122.4542 North 264 304 5,000  Level Seattle Center
Sat 01:47:57 AM 47.6303 -122.4531 North 263 303 5,000 -492 Level Seattle Center
Sat 01:48:21 AM 47.6508 -122.4247 43° Northeast 265 305 4,500 -1,574 Descending Seattle Center
Sat 01:48:58 AM 47.6453 -122.3644 98° East 247 284 3,400 -1,400 Descending Seattle Center
Sat 01:49:21 AM 47.6317 -122.3397 129° Southeast 217 250 3,100 -700 Descending Seattle Center
Sat 01:49:58 AM 47.6011 -122.3258 163° South 190 219 2,700 -655 Descending Seattle Center
Sat 01:50:16 AM 47.5869 -122.3217 169° South 162 186 2,500 -590 Descending Seattle Center
Sat 01:50:59 AM 47.5564 -122.3158 173° South 166 191 2,100 -492 Descending Seattle Center
Sat 01:51:17 AM 47.5447 -122.3122 168° South 146 168 2,000 -500 Descending Seattle Center
Sat 01:51:59 AM 47.5189 -122.3106 178° South 140 161 1,600 -556 Descending Seattle Center
Sat 01:52:11 AM 47.5111 -122.3111 183° South 124 143 1,500 -590 Descending Seattle Center
Sat 01:53:00 AM 47.4872 -122.3114 180° South 119 137 1,000 -689 Descending Seattle Center
Sat 01:53:12 AM 47.4800 -122.3119 183° South 109 125 800 -600 Descending Seattle Center
Sat 01:54:00 AM 47.4564 -122.3128 181° South 118 136 400 -500 Descending Seattle Center
Sat 01:55:00 AM 47.4499 -122.3118 173° South  Level Estimated
Sat 02:02:00 AM 47.4499 -122.3118 173° South  Level Estimated

Login

Don't have an account? Register now (free) for customized features, flight alerts, and more!